Terminal Aerodrome Forecast
Issued by NWS Cleveland, OH

Home | Current Version | Previous Version | Text Only | Print | Product List | Glossary Off
Versions: 1 2 3 4 5 6 7 8 9 10 11 12 13 14 15 16 17

000
FTUS41 KCLE 280400 AAA
TAFERI
TAF AMD
KERI 280406Z 2804/2824 30010KT P6SM SCT020 OVC040
      TEMPO 2804/2807 6SM -SHSN OVC020
     FM280700 35008KT P6SM OVC030
     FM281500 36010KT P6SM BKN035=

USA.gov is the U.S. government's official web portal to all federal, state and local government web resources and services.